Time;durP1;ratioP1;P1;durP2;ratioP2;P2;SDS_P1;SDS_P2;PMS_P1;PMS_P2;Temp;Humidity;BMP_temperature;BMP_pressure;BME280_temperature;BME280_humidity;BME280_pressure;Samples;Min_cycle;Max_cycle;Signal;HPM_P1;HPM_P2
2023/10/28 00:01:04;;;;;;;18.58;7.20;;;11.40;94.80;;;;;;9173815;19;20022;-74
2023/10/28 00:04:11;;;;;;;15.70;7.63;;;11.30;95.20;;;;;;9171363;19;20022;-73
2023/10/28 00:07:19;;;;;;;17.15;7.13;;;11.30;95.00;;;;;;9173244;19;20018;-73
2023/10/28 00:10:27;;;;;;;10.23;7.05;;;11.30;95.30;;;;;;9170411;19;20015;-73
2023/10/28 00:13:33;;;;;;;17.35;7.20;;;11.30;95.80;;;;;;9169848;19;20022;-73
2023/10/28 00:16:42;;;;;;;14.25;6.70;;;11.30;95.50;;;;;;9172457;19;20011;-73
2023/10/28 00:19:48;;;;;;;14.02;6.82;;;11.30;95.80;;;;;;9172664;19;20021;-73
2023/10/28 00:23:00;;;;;;;18.15;6.43;;;11.20;94.80;;;;;;9170676;19;20131;-73
2023/10/28 00:26:07;;;;;;;12.77;6.70;;;11.20;94.70;;;;;;9171840;19;20711;-75
2023/10/28 00:29:16;;;;;;;12.75;6.72;;;11.20;95.20;;;;;;9167842;19;20029;-72
2023/10/28 00:32:23;;;;;;;12.13;6.78;;;10.50;93.80;;;;;;9168052;19;20431;-72
2023/10/28 00:35:31;;;;;;;18.00;6.07;;;11.10;93.50;;;;;;9167163;19;20007;-72
2023/10/28 00:38:39;;;;;;;21.40;6.57;;;11.10;93.50;;;;;;9167047;19;20023;-74
2023/10/28 00:41:47;;;;;;;12.82;6.32;;;11.10;93.50;;;;;;9168896;19;20011;-74
2023/10/28 00:44:54;;;;;;;15.13;6.07;;;11.20;93.30;;;;;;9170370;19;20093;-74
2023/10/28 00:48:01;;;;;;;22.70;6.55;;;11.20;93.40;;;;;;9177350;19;20026;-73
2023/10/28 00:51:07;;;;;;;16.00;6.43;;;11.10;93.10;;;;;;9178271;19;20017;-74
2023/10/28 00:54:17;;;;;;;13.70;6.28;;;11.00;93.20;;;;;;9174985;19;20036;-73
2023/10/28 00:57:24;;;;;;;18.85;5.47;;;11.10;93.40;;;;;;9166078;19;20022;-74
2023/10/28 01:00:32;;;;;;;19.75;7.78;;;11.20;93.30;;;;;;9167511;19;20025;-72
2023/10/28 01:03:40;;;;;;;16.25;6.35;;;11.20;93.50;;;;;;9163629;19;20018;-71
2023/10/28 01:06:49;;;;;;;18.65;7.20;;;11.10;93.50;;;;;;9163786;19;20014;-72
2023/10/28 01:09:57;;;;;;;12.25;5.93;;;11.20;93.60;;;;;;9161002;19;20015;-74
2023/10/28 01:13:06;;;;;;;13.57;6.43;;;11.20;93.60;;;;;;9163765;19;20003;-71
2023/10/28 01:16:11;;;;;;;16.17;6.43;;;11.20;93.60;;;;;;9164178;19;20022;-71
2023/10/28 01:19:19;;;;;;;20.02;6.43;;;11.20;93.70;;;;;;9165893;19;20067;-73
2023/10/28 01:22:27;;;;;;;25.13;6.65;;;11.20;93.70;;;;;;9162024;19;20061;-70
2023/10/28 01:25:35;;;;;;;18.42;6.05;;;11.20;93.80;;;;;;9168009;19;20010;-71
2023/10/28 01:28:40;;;;;;;20.15;6.35;;;11.20;94.10;;;;;;9168881;19;20799;-73
2023/10/28 01:31:48;;;;;;;16.48;6.20;;;11.20;95.40;;;;;;9168319;19;20394;-74
2023/10/28 01:34:55;;;;;;;10.60;6.07;;;11.20;96.30;;;;;;9169912;19;20033;-71
2023/10/28 01:38:06;;;;;;;19.25;7.50;;;11.30;95.60;;;;;;9171204;19;20020;-72
2023/10/28 01:41:13;;;;;;;13.93;6.22;;;11.30;96.00;;;;;;9173326;19;20366;-71
2023/10/28 01:44:23;;;;;;;20.52;6.43;;;11.30;95.00;;;;;;9169315;19;20026;-73
2023/10/28 01:47:29;;;;;;;19.38;6.72;;;11.30;95.30;;;;;;9173522;19;20077;-72
2023/10/28 01:50:37;;;;;;;16.58;6.65;;;11.40;95.60;;;;;;9170741;19;20014;-75
2023/10/28 01:53:45;;;;;;;18.40;5.50;;;11.40;95.10;;;;;;9172642;19;20022;-72
2023/10/28 01:56:52;;;;;;;21.90;6.55;;;11.30;95.30;;;;;;9171344;19;20010;-74
2023/10/28 01:59:58;;;;;;;18.08;6.07;;;11.50;95.10;;;;;;9171432;19;20639;-72
2023/10/28 02:03:08;;;;;;;15.75;5.80;;;11.30;94.10;;;;;;9172682;19;20081;-73
2023/10/28 02:06:14;;;;;;;18.73;6.10;;;11.30;94.20;;;;;;9172120;19;20022;-71
2023/10/28 02:09:25;;;;;;;15.30;5.82;;;11.40;94.60;;;;;;9171464;19;20444;-73
2023/10/28 02:12:34;;;;;;;16.65;6.38;;;11.40;95.20;;;;;;9171598;19;20015;-72
2023/10/28 02:15:42;;;;;;;17.92;6.10;;;11.40;95.40;;;;;;9169946;19;20584;-73
2023/10/28 02:18:49;;;;;;;11.07;5.35;;;11.40;94.70;;;;;;9171324;19;20640;-73
2023/10/28 02:21:58;;;;;;;14.30;5.63;;;11.40;95.10;;;;;;9169903;19;20082;-72
2023/10/28 02:25:23;;;;;;;18.48;5.70;;;11.30;92.70;;;;;;9168575;19;20019;-73
2023/10/28 02:28:31;;;;;;;13.95;5.97;;;11.50;92.80;;;;;;9169470;19;20006;-73
2023/10/28 02:31:37;;;;;;;12.95;5.72;;;11.40;92.70;;;;;;9163828;19;20036;-72
2023/10/28 02:34:44;;;;;;;19.17;5.80;;;11.50;92.70;;;;;;9171027;19;20021;-75
2023/10/28 02:37:50;;;;;;;8.25;5.43;;;11.20;92.60;;;;;;9169487;19;20022;-72
2023/10/28 02:41:00;;;;;;;13.32;5.20;;;11.50;93.10;;;;;;9170831;19;20022;-73
2023/10/28 02:44:06;;;;;;;9.98;5.20;;;11.50;92.90;;;;;;9169895;19;20010;-70
2023/10/28 02:47:15;;;;;;;12.63;4.93;;;11.40;92.80;;;;;;9169044;19;20011;-74
2023/10/28 02:50:20;;;;;;;13.73;4.90;;;11.40;92.80;;;;;;9169209;19;20576;-73
2023/10/28 02:53:29;;;;;;;17.33;5.97;;;11.40;92.80;;;;;;9172053;19;20018;-72
2023/10/28 02:56:38;;;;;;;25.08;6.05;;;11.40;92.90;;;;;;9168427;19;20006;-70
2023/10/28 02:59:46;;;;;;;9.40;4.75;;;11.50;93.10;;;;;;9170625;19;20100;-73
2023/10/28 03:02:55;;;;;;;16.70;5.22;;;11.50;93.00;;;;;;9171746;19;20018;-70
2023/10/28 03:06:02;;;;;;;13.02;5.40;;;11.30;93.10;;;;;;9167624;19;20006;-70
2023/10/28 03:09:08;;;;;;;11.23;5.07;;;11.40;93.10;;;;;;9171068;19;20026;-74
2023/10/28 03:12:18;;;;;;;13.05;5.00;;;11.40;93.20;;;;;;9168085;19;20025;-71
2023/10/28 03:15:24;;;;;;;15.15;4.93;;;11.40;93.20;;;;;;9167671;19;20429;-72
2023/10/28 03:18:32;;;;;;;16.67;4.75;;;11.40;93.30;;;;;;9170135;19;20010;-74
2023/10/28 03:21:37;;;;;;;12.45;5.15;;;11.40;93.40;;;;;;9166100;19;20018;-73
2023/10/28 03:24:45;;;;;;;13.65;5.43;;;11.50;93.50;;;;;;9166463;19;20019;-72
2023/10/28 03:27:56;;;;;;;14.88;4.90;;;11.50;93.30;;;;;;9165792;19;20017;-73
2023/10/28 03:31:09;;;;;;;18.10;5.10;;;11.50;93.40;;;;;;9164661;19;20492;-73
2023/10/28 03:34:16;;;;;;;16.90;6.40;;;11.50;93.50;;;;;;9166221;19;20357;-71
2023/10/28 03:37:25;;;;;;;12.57;4.82;;;11.40;93.50;;;;;;9166670;19;20015;-73
2023/10/28 03:40:30;;;;;;;13.77;4.68;;;11.50;93.70;;;;;;9169154;19;20018;-73
2023/10/28 03:43:41;;;;;;;15.60;4.30;;;11.50;93.50;;;;;;9165826;19;20042;-73
2023/10/28 03:46:46;;;;;;;11.75;4.07;;;11.60;93.80;;;;;;9163172;19;20018;-73
2023/10/28 03:49:54;;;;;;;12.00;4.70;;;11.60;93.80;;;;;;9166732;19;20011;-73
2023/10/28 03:52:59;;;;;;;11.43;4.43;;;11.60;93.90;;;;;;9170078;19;20078;-73
2023/10/28 03:56:08;;;;;;;19.00;4.50;;;11.50;93.80;;;;;;9170142;19;20010;-75
2023/10/28 03:59:17;;;;;;;17.05;5.05;;;11.50;94.00;;;;;;9174674;19;20014;-73
2023/10/28 04:02:25;;;;;;;10.98;4.22;;;11.50;94.10;;;;;;9183002;19;20013;-73
2023/10/28 04:05:31;;;;;;;16.40;4.93;;;11.50;92.90;;;;;;9176659;19;20495;-72
2023/10/28 04:08:38;;;;;;;27.52;4.47;;;11.50;93.20;;;;;;9178420;19;20022;-72
2023/10/28 04:11:44;;;;;;;10.38;3.72;;;11.50;93.20;;;;;;9171023;19;20019;-73
2023/10/28 04:14:54;;;;;;;8.68;4.13;;;11.50;93.00;;;;;;9170991;19;20094;-74
2023/10/28 04:18:00;;;;;;;13.23;4.03;;;11.50;92.90;;;;;;9166720;19;20499;-74
2023/10/28 04:21:08;;;;;;;12.10;4.43;;;11.50;93.10;;;;;;9165679;19;20014;-72
2023/10/28 04:24:14;;;;;;;8.35;3.80;;;11.50;93.20;;;;;;9164838;19;20015;-73
2023/10/28 04:27:24;;;;;;;12.02;3.55;;;11.60;93.10;;;;;;9164165;19;20090;-73
2023/10/28 04:30:32;;;;;;;15.05;4.43;;;11.60;93.10;;;;;;9159651;19;20022;-73
2023/10/28 04:33:42;;;;;;;9.73;3.45;;;11.50;93.00;;;;;;9163374;19;20030;-72
2023/10/28 04:36:47;;;;;;;10.23;3.78;;;11.50;93.10;;;;;;9163024;19;20534;-71
2023/10/28 04:39:55;;;;;;;8.00;3.30;;;11.50;93.10;;;;;;9164264;19;20360;-73
2023/10/28 04:43:01;;;;;;;10.63;3.22;;;11.50;93.00;;;;;;9163217;19;20025;-71
2023/10/28 04:46:11;;;;;;;13.95;3.33;;;11.60;93.10;;;;;;9161166;19;20020;-72
2023/10/28 04:49:16;;;;;;;18.38;3.50;;;11.50;93.00;;;;;;9164662;19;20019;-72
2023/10/28 04:52:24;;;;;;;15.85;3.28;;;11.50;93.20;;;;;;9162734;19;20010;-72
2023/10/28 04:55:29;;;;;;;3.45;2.20;;;11.60;93.40;;;;;;9162303;19;20015;-74
2023/10/28 04:58:38;;;;;;;10.07;3.35;;;11.50;93.10;;;;;;9160260;19;20578;-72
2023/10/28 05:01:46;;;;;;;10.38;2.55;;;11.50;93.40;;;;;;9161836;19;20018;-71
2023/10/28 05:04:53;;;;;;;7.53;2.90;;;11.60;93.80;;;;;;9164321;19;20033;-72
2023/10/28 05:07:59;;;;;;;8.77;2.70;;;11.60;93.60;;;;;;9164287;19;20557;-74
2023/10/28 05:11:08;;;;;;;6.82;2.40;;;11.50;93.60;;;;;;9161884;19;20555;-72
2023/10/28 05:14:14;;;;;;;9.38;2.75;;;11.60;93.60;;;;;;9163444;19;20264;-73
2023/10/28 05:17:24;;;;;;;7.70;2.63;;;11.50;93.70;;;;;;9164340;19;20014;-73
2023/10/28 05:20:33;;;;;;;5.97;2.30;;;11.50;93.80;;;;;;9166096;19;20122;-72
2023/10/28 05:23:40;;;;;;;6.82;2.10;;;11.60;93.90;;;;;;9166346;19;20661;-71
2023/10/28 05:26:45;;;;;;;7.00;2.20;;;11.50;93.80;;;;;;9160878;19;20053;-73
2023/10/28 05:29:53;;;;;;;11.55;2.90;;;11.60;93.90;;;;;;9156600;19;20488;-72
2023/10/28 05:33:05;;;;;;;11.32;2.22;;;11.50;94.00;;;;;;9162054;19;20026;-73
2023/10/28 05:36:15;;;;;;;12.60;2.40;;;11.40;94.20;;;;;;9160687;19;20014;-71
2023/10/28 05:39:20;;;;;;;5.65;2.28;;;11.50;94.80;;;;;;9162688;19;20025;-72
2023/10/28 05:42:28;;;;;;;5.20;2.53;;;11.40;95.00;;;;;;9163911;19;20614;-72
2023/10/28 05:45:33;;;;;;;10.18;2.65;;;11.40;94.10;;;;;;9161252;19;20022;-72
2023/10/28 05:48:43;;;;;;;5.53;2.85;;;11.50;94.10;;;;;;9162755;19;20018;-73
2023/10/28 05:51:49;;;;;;;5.53;2.40;;;11.40;94.80;;;;;;9164375;19;20151;-71
2023/10/28 05:54:56;;;;;;;10.05;1.98;;;11.40;94.50;;;;;;9163518;19;20575;-73
2023/10/28 05:58:01;;;;;;;11.15;2.10;;;11.40;94.70;;;;;;9165992;19;20010;-73
2023/10/28 06:01:09;;;;;;;4.63;2.03;;;11.40;94.80;;;;;;9164366;19;20014;-72
2023/10/28 06:04:17;;;;;;;9.52;2.40;;;11.40;95.20;;;;;;9163784;19;20014;-73
2023/10/28 06:07:25;;;;;;;8.00;2.00;;;11.50;95.00;;;;;;9160444;19;20018;-74
2023/10/28 06:10:30;;;;;;;7.85;3.17;;;11.50;95.30;;;;;;9166945;19;20022;-74
2023/10/28 06:13:38;;;;;;;9.00;4.07;;;11.40;95.30;;;;;;9171184;19;20021;-72
2023/10/28 06:16:44;;;;;;;6.78;2.50;;;11.40;95.60;;;;;;9167849;19;20018;-75
2023/10/28 06:19:54;;;;;;;6.72;2.97;;;11.40;95.80;;;;;;9170450;19;20021;-72
2023/10/28 06:22:59;;;;;;;6.07;2.63;;;11.40;93.70;;;;;;9172596;19;20108;-74
2023/10/28 06:26:07;;;;;;;10.20;3.92;;;11.40;93.60;;;;;;9170058;19;20014;-74
2023/10/28 06:29:13;;;;;;;11.82;4.05;;;11.40;93.60;;;;;;9169352;19;20112;-74
2023/10/28 06:32:21;;;;;;;8.25;3.20;;;11.40;93.50;;;;;;9169870;19;20325;-73
2023/10/28 06:35:30;;;;;;;4.97;3.00;;;11.30;93.40;;;;;;9171330;19;20015;-74
2023/10/28 06:38:37;;;;;;;6.72;4.20;;;11.40;93.50;;;;;;9173321;19;20006;-72
2023/10/28 06:41:43;;;;;;;9.18;4.43;;;11.40;93.50;;;;;;9175106;19;20002;-74
2023/10/28 06:44:50;;;;;;;25.27;3.53;;;11.40;93.60;;;;;;9172077;19;20010;-73
2023/10/28 06:47:56;;;;;;;8.55;3.13;;;11.40;93.60;;;;;;9171988;19;20045;-74
2023/10/28 06:51:06;;;;;;;4.53;2.85;;;11.50;93.60;;;;;;9171453;19;20007;-73
2023/10/28 06:54:12;;;;;;;6.65;2.85;;;11.40;93.40;;;;;;9169142;19;20015;-74
2023/10/28 06:57:20;;;;;;;11.32;4.15;;;11.40;93.40;;;;;;9170130;19;20014;-71
2023/10/28 07:00:27;;;;;;;10.70;3.33;;;11.40;93.40;;;;;;9170942;19;20644;-74
2023/10/28 07:03:34;;;;;;;12.77;3.63;;;11.40;93.40;;;;;;9169153;19;20445;-73
2023/10/28 07:06:45;;;;;;;6.18;2.90;;;11.50;93.50;;;;;;9171884;19;20030;-72
2023/10/28 07:09:52;;;;;;;8.20;2.85;;;11.50;93.70;;;;;;9169354;19;20746;-73
2023/10/28 07:12:58;;;;;;;9.20;3.22;;;11.40;93.60;;;;;;9168604;19;20078;-73
2023/10/28 07:16:06;;;;;;;9.13;3.58;;;11.40;93.70;;;;;;9178488;19;20015;-74
2023/10/28 07:19:12;;;;;;;11.13;4.22;;;11.60;93.60;;;;;;9177680;19;20034;-74
2023/10/28 07:22:22;;;;;;;8.73;3.58;;;11.40;93.60;;;;;;9177971;19;20352;-73
2023/10/28 07:25:28;;;;;;;8.50;3.78;;;11.50;93.70;;;;;;9171845;19;20503;-75
2023/10/28 07:28:37;;;;;;;13.88;3.88;;;11.40;93.60;;;;;;9167954;19;20030;-74
2023/10/28 07:31:43;;;;;;;12.57;3.53;;;11.50;93.80;;;;;;9168172;19;20006;-71
2023/10/28 07:34:50;;;;;;;8.55;3.38;;;11.50;93.80;;;;;;9167895;19;20021;-73
2023/10/28 07:37:59;;;;;;;12.10;4.07;;;11.50;93.80;;;;;;9169689;19;20430;-71
2023/10/28 07:41:08;;;;;;;15.57;4.13;;;11.50;93.90;;;;;;9169682;19;20022;-72
2023/10/28 07:44:13;;;;;;;15.57;3.85;;;11.50;93.90;;;;;;9169244;19;20506;-73
2023/10/28 07:47:21;;;;;;;9.77;4.60;;;11.60;93.80;;;;;;9167913;19;20085;-72
2023/10/28 07:50:27;;;;;;;11.00;3.85;;;11.50;93.70;;;;;;9170005;19;20374;-73
2023/10/28 07:53:37;;;;;;;11.55;3.90;;;11.50;93.80;;;;;;9167644;19;20353;-74
2023/10/28 07:56:42;;;;;;;10.18;3.65;;;11.60;93.90;;;;;;9169000;19;20359;-72
2023/10/28 07:59:51;;;;;;;12.00;3.38;;;11.70;94.10;;;;;;9168330;19;20014;-73
2023/10/28 08:02:56;;;;;;;13.23;3.88;;;11.60;94.10;;;;;;9167917;19;20010;-73
2023/10/28 08:06:11;;;;;;;9.70;3.03;;;11.80;94.20;;;;;;9166622;19;20018;-73
2023/10/28 08:09:35;;;;;;;17.15;9.70;;;11.60;94.10;;;;;;9165174;19;20035;-72
2023/10/28 08:12:42;;;;;;;9.95;3.60;;;11.70;94.50;;;;;;9167916;19;20496;-73
2023/10/28 08:15:50;;;;;;;9.95;4.53;;;11.70;95.90;;;;;;9164124;19;20068;-72
2023/10/28 08:19:01;;;;;;;7.53;3.63;;;11.90;97.60;;;;;;9168141;19;20361;-72
2023/10/28 08:22:06;;;;;;;9.10;3.83;;;11.80;96.10;;;;;;9168948;19;20014;-73
2023/10/28 08:25:17;;;;;;;7.13;3.45;;;11.80;96.20;;;;;;9166983;19;20018;-72
2023/10/28 08:28:23;;;;;;;8.75;3.13;;;11.90;96.20;;;;;;9165409;19;20105;-71
2023/10/28 08:31:30;;;;;;;7.60;3.25;;;11.90;94.80;;;;;;9163706;19;20019;-71
2023/10/28 08:34:36;;;;;;;8.27;4.07;;;11.90;94.80;;;;;;9166816;19;20021;-71
2023/10/28 08:37:43;;;;;;;12.27;4.47;;;11.90;94.90;;;;;;9167040;19;20010;-72
2023/10/28 08:40:51;;;;;;;10.07;3.53;;;11.90;94.90;;;;;;9167639;19;20085;-71
2023/10/28 08:44:03;;;;;;;9.60;3.47;;;11.90;94.90;;;;;;9167939;19;20499;-74
2023/10/28 08:47:10;;;;;;;10.70;4.00;;;12.00;94.90;;;;;;9166931;19;20531;-71
2023/10/28 08:50:19;;;;;;;14.05;3.30;;;12.10;95.00;;;;;;9167335;19;20017;-71
2023/10/28 08:53:25;;;;;;;10.68;3.13;;;12.00;95.00;;;;;;9168542;19;20010;-72
2023/10/28 08:56:38;;;;;;;11.25;2.97;;;12.10;95.10;;;;;;9170448;19;20018;-72
2023/10/28 08:59:44;;;;;;;10.80;2.97;;;12.10;95.00;;;;;;9168755;19;20019;-73
2023/10/28 09:02:55;;;;;;;5.43;2.75;;;12.10;95.00;;;;;;9169040;19;20026;-73
2023/10/28 09:06:04;;;;;;;5.55;2.85;;;12.20;95.20;;;;;;9165821;19;20047;-73
2023/10/28 09:09:12;;;;;;;15.23;3.80;;;12.20;95.30;;;;;;9167023;19;20015;-73
2023/10/28 09:12:21;;;;;;;7.60;2.95;;;12.20;95.40;;;;;;9169066;19;20018;-72
2023/10/28 09:15:29;;;;;;;10.13;3.53;;;12.30;96.30;;;;;;9168525;19;20022;-73
2023/10/28 09:18:41;;;;;;;11.32;3.92;;;12.30;96.20;;;;;;9169105;19;20011;-73
2023/10/28 09:21:49;;;;;;;7.20;3.00;;;12.40;96.10;;;;;;9167818;19;20349;-73
2023/10/28 09:24:55;;;;;;;11.55;3.20;;;12.40;96.20;;;;;;9167071;19;20015;-72
2023/10/28 09:28:07;;;;;;;7.03;3.13;;;12.40;95.60;;;;;;9166730;19;20803;-72
2023/10/28 09:31:13;;;;;;;11.05;2.67;;;12.40;93.90;;;;;;9165102;19;20496;-72
2023/10/28 09:34:21;;;;;;;9.98;2.28;;;12.40;94.00;;;;;;9169088;19;20011;-72
2023/10/28 09:37:26;;;;;;;7.38;2.50;;;12.50;94.10;;;;;;9167492;19;20049;-72
2023/10/28 09:40:36;;;;;;;5.53;2.70;;;12.50;94.10;;;;;;9166509;19;20022;-71
2023/10/28 09:43:45;;;;;;;6.25;2.42;;;12.60;94.10;;;;;;9168125;19;20015;-72
2023/10/28 09:46:58;;;;;;;5.65;2.47;;;12.60;94.20;;;;;;9176003;19;20011;-72
2023/10/28 09:50:08;;;;;;;7.40;2.70;;;12.80;94.20;;;;;;9173959;19;20022;-72
2023/10/28 09:53:18;;;;;;;15.82;3.00;;;12.70;94.10;;;;;;9175047;19;20018;-72
2023/10/28 09:56:26;;;;;;;7.78;2.40;;;12.70;94.10;;;;;;9175677;19;20123;-72
2023/10/28 09:59:39;;;;;;;8.77;2.50;;;12.70;94.20;;;;;;9177052;19;20013;-72
2023/10/28 10:03:03;;;;;;;7.20;2.90;;;12.90;94.10;;;;;;9176330;19;20097;-72
2023/10/28 10:06:12;;;;;;;3.65;1.90;;;12.90;93.80;;;;;;9176604;19;20015;-71
2023/10/28 10:09:20;;;;;;;13.00;2.60;;;12.90;94.10;;;;;;9173587;19;20021;-72
2023/10/28 10:12:33;;;;;;;9.10;2.35;;;12.90;93.80;;;;;;9174796;19;20022;-72
2023/10/28 10:15:46;;;;;;;6.75;2.40;;;12.80;94.00;;;;;;9174787;19;20692;-72
2023/10/28 10:18:58;;;;;;;4.38;2.13;;;13.00;93.90;;;;;;9176350;19;20448;-71
2023/10/28 10:22:05;;;;;;;7.90;2.45;;;13.00;94.00;;;;;;9173201;19;20062;-72
2023/10/28 10:25:13;;;;;;;6.80;2.20;;;13.00;94.10;;;;;;9173659;19;20464;-73
2023/10/28 10:28:23;;;;;;;4.32;1.98;;;13.10;94.20;;;;;;9170476;19;20078;-72
2023/10/28 10:31:35;;;;;;;6.03;2.22;;;13.10;94.20;;;;;;9170181;19;20021;-72
2023/10/28 10:34:42;;;;;;;5.88;1.80;;;13.10;94.10;;;;;;9175561;19;20007;-73
2023/10/28 10:37:50;;;;;;;11.45;2.53;;;13.20;94.20;;;;;;9174354;19;20774;-72
2023/10/28 10:40:58;;;;;;;8.60;2.30;;;13.20;94.30;;;;;;9171935;19;20021;-73
2023/10/28 10:44:27;;;;;;;7.50;1.95;;;13.20;94.40;;;;;;9173152;19;20483;-73
2023/10/28 10:47:36;;;;;;;8.15;3.10;;;13.20;94.20;;;;;;9174376;19;20015;-72
2023/10/28 10:50:43;;;;;;;15.05;2.90;;;13.30;94.60;;;;;;9169583;19;20007;-71
2023/10/28 10:53:49;;;;;;;5.97;2.17;;;13.30;94.70;;;;;;9171895;19;20478;-72
2023/10/28 10:56:57;;;;;;;9.55;2.22;;;13.30;95.70;;;;;;9169185;19;20018;-69
2023/10/28 11:00:04;;;;;;;9.18;2.60;;;13.30;92.00;;;;;;9171194;19;20033;-70
2023/10/28 11:03:14;;;;;;;5.57;1.98;;;13.40;92.20;;;;;;9173395;19;20018;-70
2023/10/28 11:06:20;;;;;;;5.63;1.80;;;13.50;92.10;;;;;;9172796;19;20021;-70
2023/10/28 11:09:27;;;;;;;6.25;2.25;;;13.40;91.90;;;;;;9170919;19;20432;-71
2023/10/28 11:12:35;;;;;;;5.45;2.03;;;13.50;92.10;;;;;;9172512;19;20021;-71
2023/10/28 11:15:42;;;;;;;4.20;2.00;;;13.40;92.00;;;;;;9174742;19;20520;-70
2023/10/28 11:18:51;;;;;;;8.65;3.17;;;13.50;92.00;;;;;;9173270;19;20107;-70
2023/10/28 11:22:00;;;;;;;10.32;2.30;;;13.40;91.90;;;;;;9172451;19;20022;-70
2023/10/28 11:25:07;;;;;;;6.00;2.50;;;13.50;92.10;;;;;;9171314;19;20015;-70
2023/10/28 11:28:15;;;;;;;11.27;2.42;;;13.50;92.00;;;;;;9173005;19;20018;-70
2023/10/28 11:31:22;;;;;;;10.25;2.75;;;13.60;92.30;;;;;;9167511;19;20821;-71
2023/10/28 11:34:32;;;;;;;10.13;2.58;;;13.70;92.10;;;;;;9171802;19;20021;-69
2023/10/28 11:37:39;;;;;;;6.00;2.25;;;13.70;92.00;;;;;;9170571;19;20018;-71
2023/10/28 11:40:46;;;;;;;7.75;2.22;;;13.70;92.20;;;;;;9169606;19;20025;-70
2023/10/28 11:43:53;;;;;;;16.20;2.67;;;13.70;92.10;;;;;;9168741;19;20018;-70
2023/10/28 11:47:00;;;;;;;10.30;2.40;;;13.80;92.30;;;;;;9171007;19;20590;-70
2023/10/28 11:50:09;;;;;;;8.98;2.30;;;13.90;92.20;;;;;;9171283;19;20053;-70
2023/10/28 11:53:17;;;;;;;5.05;2.10;;;14.00;92.20;;;;;;9170323;19;20018;-71
2023/10/28 11:56:23;;;;;;;5.57;1.80;;;14.10;92.60;;;;;;9169029;19;20052;-72
2023/10/28 11:59:30;;;;;;;9.10;2.22;;;14.10;92.60;;;;;;9168666;19;20010;-71
2023/10/28 12:02:36;;;;;;;10.90;1.90;;;14.20;92.60;;;;;;9169956;19;20029;-72
2023/10/28 12:05:46;;;;;;;7.50;2.17;;;14.30;92.90;;;;;;9168647;19;20480;-73
2023/10/28 12:08:52;;;;;;;6.43;1.80;;;14.30;94.60;;;;;;9167409;19;20021;-70
2023/10/28 12:11:59;;;;;;;6.00;1.80;;;14.40;93.40;;;;;;9164517;19;20021;-70
2023/10/28 12:15:05;;;;;;;5.25;1.70;;;14.40;93.40;;;;;;9166083;19;20023;-70
2023/10/28 12:18:13;;;;;;;4.28;1.30;;;14.40;93.00;;;;;;9167040;19;20038;-70
2023/10/28 12:21:22;;;;;;;6.40;1.52;;;14.50;93.10;;;;;;9167949;19;20026;-70
2023/10/28 12:24:30;;;;;;;8.35;1.92;;;14.50;92.80;;;;;;9165939;19;20112;-70
2023/10/28 12:27:36;;;;;;;5.97;1.70;;;14.50;92.80;;;;;;9165487;19;20381;-70
2023/10/28 12:30:43;;;;;;;6.18;1.30;;;14.60;92.80;;;;;;9161257;19;20018;-70
2023/10/28 12:33:48;;;;;;;5.05;1.42;;;14.60;93.00;;;;;;9166475;19;20602;-70
2023/10/28 12:36:58;;;;;;;4.57;1.15;;;14.70;92.90;;;;;;9164969;19;20014;-69
2023/10/28 12:40:05;;;;;;;9.75;1.67;;;14.60;92.70;;;;;;9165853;19;20408;-69
2023/10/28 12:43:12;;;;;;;14.77;2.05;;;14.70;92.80;;;;;;9162912;19;20418;-69
2023/10/28 12:46:18;;;;;;;6.63;1.42;;;14.60;92.80;;;;;;9163564;19;20377;-69
2023/10/28 12:49:26;;;;;;;5.60;2.50;;;14.70;93.30;;;;;;9164804;19;20026;-69
2023/10/28 12:52:34;;;;;;;4.97;1.42;;;14.60;93.40;;;;;;9165067;19;20046;-69
2023/10/28 12:55:41;;;;;;;6.15;1.60;;;14.90;94.00;;;;;;9166132;19;20026;-70
2023/10/28 12:58:47;;;;;;;4.85;1.40;;;14.60;94.20;;;;;;9163682;19;20014;-69
2023/10/28 13:01:55;;;;;;;7.50;2.20;;;14.60;93.50;;;;;;9158502;19;20480;-70
2023/10/28 13:05:00;;;;;;;9.82;2.20;;;14.60;93.40;;;;;;9159838;19;20698;-69
2023/10/28 13:08:11;;;;;;;5.22;1.38;;;14.70;93.40;;;;;;9158507;19;20483;-71
2023/10/28 13:11:17;;;;;;;5.13;1.23;;;14.60;93.70;;;;;;9158726;19;20123;-70
2023/10/28 13:14:27;;;;;;;11.13;1.85;;;14.70;93.80;;;;;;9161418;19;20014;-70
2023/10/28 13:17:33;;;;;;;7.90;1.80;;;14.70;92.70;;;;;;9164449;19;20057;-71
2023/10/28 13:20:41;;;;;;;7.13;1.58;;;14.70;92.90;;;;;;9161192;19;20025;-71
2023/10/28 13:23:49;;;;;;;5.88;1.83;;;14.70;92.90;;;;;;9162697;19;20615;-71
2023/10/28 13:26:57;;;;;;;10.40;1.98;;;14.80;92.80;;;;;;9164190;19;20370;-70
2023/10/28 13:30:05;;;;;;;7.95;1.67;;;14.70;92.80;;;;;;9158969;19;20452;-71
2023/10/28 13:33:13;;;;;;;9.63;1.95;;;14.70;93.10;;;;;;9163702;19;20014;-70
2023/10/28 13:36:20;;;;;;;3.90;1.38;;;14.80;92.90;;;;;;9162298;19;20021;-70
2023/10/28 13:39:30;;;;;;;10.68;2.33;;;14.90;92.90;;;;;;9161624;19;20014;-71
2023/10/28 13:42:36;;;;;;;9.73;3.20;;;14.80;92.90;;;;;;9160100;19;20726;-71
2023/10/28 13:45:43;;;;;;;7.43;1.70;;;14.80;92.90;;;;;;9160845;19;20018;-71
2023/10/28 13:48:48;;;;;;;5.47;1.77;;;14.80;92.70;;;;;;9164204;19;20017;-71
2023/10/28 13:52:00;;;;;;;9.50;1.80;;;14.80;92.60;;;;;;9163251;19;20007;-69
2023/10/28 13:55:09;;;;;;;5.20;1.50;;;14.90;92.80;;;;;;9163418;19;20052;-70
2023/10/28 13:58:17;;;;;;;11.23;1.65;;;14.80;92.80;;;;;;9157992;19;20025;-69
2023/10/28 14:01:22;;;;;;;6.03;1.63;;;14.80;92.80;;;;;;9159490;19;20021;-70
2023/10/28 14:04:29;;;;;;;6.07;1.52;;;14.80;92.90;;;;;;9161446;19;20022;-70
2023/10/28 14:07:36;;;;;;;9.85;1.50;;;14.90;92.90;;;;;;9161196;19;20061;-70
2023/10/28 14:10:51;;;;;;;6.20;2.33;;;;;;;;;;9163235;19;20022;-70
2023/10/28 14:14:00;;;;;;;10.75;1.85;;;14.90;94.00;;;;;;9162746;19;20103;-70
2023/10/28 14:17:07;;;;;;;7.65;1.55;;;15.50;94.40;;;;;;9159844;19;20014;-69
2023/10/28 14:20:14;;;;;;;9.30;1.83;;;15.20;92.80;;;;;;9162452;19;20018;-69
2023/10/28 14:23:22;;;;;;;7.97;1.70;;;14.90;92.30;;;;;;9160667;19;20511;-69
2023/10/28 14:26:30;;;;;;;10.63;2.13;;;14.80;92.10;;;;;;9161422;19;20022;-69
2023/10/28 14:29:38;;;;;;;3.38;1.27;;;14.80;92.10;;;;;;9154154;19;20029;-69
2023/10/28 14:32:44;;;;;;;5.45;1.65;;;14.80;91.90;;;;;;9168299;19;20202;-71
2023/10/28 14:35:52;;;;;;;7.78;2.03;;;14.90;91.90;;;;;;9170659;19;20021;-70
2023/10/28 14:38:58;;;;;;;8.85;2.10;;;14.90;91.90;;;;;;9171405;19;20091;-70
2023/10/28 14:42:08;;;;;;;13.35;1.80;;;14.90;91.80;;;;;;9167163;19;20014;-70
2023/10/28 14:45:13;;;;;;;8.20;2.05;;;14.90;91.70;;;;;;9172015;19;20034;-69
2023/10/28 14:48:21;;;;;;;10.18;1.85;;;14.90;91.70;;;;;;9170959;19;20487;-70
2023/10/28 14:51:27;;;;;;;11.32;3.30;;;14.90;91.70;;;;;;9170127;19;20022;-70
2023/10/28 14:54:35;;;;;;;9.00;1.83;;;15.00;91.70;;;;;;9168858;19;20484;-70
2023/10/28 14:57:43;;;;;;;15.52;3.45;;;15.00;91.80;;;;;;9168359;19;20018;-69
2023/10/28 15:01:11;;;;;;;11.52;2.28;;;14.90;91.50;;;;;;9169868;19;20017;-69
2023/10/28 15:04:17;;;;;;;7.95;1.67;;;14.90;91.70;;;;;;9169277;19;20487;-69
2023/10/28 15:07:25;;;;;;;9.45;1.92;;;14.80;91.60;;;;;;9171903;19;20022;-65
2023/10/28 15:10:30;;;;;;;3.58;1.45;;;14.80;91.70;;;;;;9170017;19;20006;-66
2023/10/28 15:13:41;;;;;;;9.23;1.67;;;14.80;91.60;;;;;;9167635;19;20014;-65
2023/10/28 15:16:50;;;;;;;10.95;1.70;;;14.80;91.60;;;;;;9166592;19;20014;-67
2023/10/28 15:19:57;;;;;;;8.70;2.10;;;14.80;91.50;;;;;;9168265;19;20031;-65
2023/10/28 15:23:05;;;;;;;12.55;2.08;;;14.80;91.70;;;;;;9168221;19;20031;-65
2023/10/28 15:26:13;;;;;;;14.18;2.58;;;14.70;91.70;;;;;;9162604;19;20014;-66
2023/10/28 15:29:22;;;;;;;13.02;2.17;;;14.70;91.70;;;;;;9163154;19;20085;-69
2023/10/28 15:32:30;;;;;;;13.45;2.28;;;14.70;91.50;;;;;;9166097;19;20033;-70
2023/10/28 15:35:40;;;;;;;10.63;3.42;;;14.60;91.50;;;;;;9164748;19;20015;-69
2023/10/28 15:38:48;;;;;;;11.60;2.53;;;14.60;91.30;;;;;;9168207;19;20025;-69
2023/10/28 15:41:53;;;;;;;10.77;2.33;;;14.60;91.70;;;;;;9165877;19;20112;-69
2023/10/28 15:45:04;;;;;;;16.08;2.17;;;14.60;91.70;;;;;;9169198;19;20372;-70
2023/10/28 15:48:09;;;;;;;15.43;2.30;;;14.60;91.60;;;;;;9163511;19;20139;-70
2023/10/28 15:51:19;;;;;;;19.48;4.03;;;14.60;91.70;;;;;;9164824;19;20018;-70
2023/10/28 15:54:24;;;;;;;8.00;2.15;;;14.40;91.60;;;;;;9168952;19;20035;-69
2023/10/28 15:57:31;;;;;;;20.75;2.67;;;14.50;91.60;;;;;;9166579;19;20349;-71
2023/10/28 16:00:40;;;;;;;16.42;2.40;;;14.40;91.60;;;;;;9165922;19;20019;-69
2023/10/28 16:03:48;;;;;;;20.25;3.15;;;14.40;91.70;;;;;;9165510;19;20103;-69
2023/10/28 16:06:53;;;;;;;13.07;3.13;;;14.30;91.50;;;;;;9167467;19;20026;-70
2023/10/28 16:10:02;;;;;;;12.73;3.05;;;14.30;91.40;;;;;;9163451;19;20007;-69